Time;durP1;ratioP1;P1;durP2;ratioP2;P2;SDS_P1;SDS_P2;PMS_P1;PMS_P2;Temp;Humidity;BMP_temperature;BMP_pressure;BME280_temperature;BME280_humidity;BME280_pressure;Samples;Min_cycle;Max_cycle;Signal;HPM_P1;HPM_P2
2023/04/14 00:00:32;;;;;;;27.10;18.50;;;;;;;12.09;67.17;98056.26;222779;181;145459;-75
2023/04/14 00:05:52;;;;;;;26.00;19.60;;;;;;;12.07;67.27;98053.52;223817;181;138472;-75
2023/04/14 00:10:55;;;;;;;29.70;22.00;;;;;;;12.09;67.47;98055.69;223946;181;139789;-74
2023/04/14 00:22:24;;;;;;;31.80;24.20;;;;;;;12.13;67.81;98050.75;223897;181;138820;-74
2023/04/14 00:27:28;;;;;;;33.90;26.30;;;;;;;12.18;67.80;98049.48;223916;181;137177;-74
2023/04/14 00:32:32;;;;;;;34.80;26.00;;;;;;;12.15;67.84;98050.23;223997;181;145654;-75
2023/04/14 00:37:35;;;;;;;34.50;26.30;;;;;;;12.03;68.08;98047.70;223896;181;138355;-75
2023/04/14 00:42:46;;;;;;;31.90;26.10;;;;;;;11.98;68.43;98048.66;223942;181;138126;-75
2023/04/14 00:53:36;;;;;;;;;;;;;;;11.93;68.75;98051.41;222404;181;140174;-73
2023/04/14 00:58:40;;;;;;;31.20;24.60;;;;;;;11.96;68.81;98049.49;224125;181;128900;-73
2023/04/14 01:03:44;;;;;;;34.30;26.30;;;;;;;12.01;68.69;98037.75;223943;181;145034;-73
2023/04/14 01:08:49;;;;;;;30.20;23.60;;;;;;;12.02;68.49;98024.15;223841;182;138954;-73
2023/04/14 01:13:56;;;;;;;;;;;;;;;12.01;68.35;98023.10;223958;181;138418;-73
2023/04/14 01:19:22;;;;;;;32.90;26.70;;;;;;;11.94;68.35;98026.94;224010;182;145892;-74
2023/04/14 01:24:43;;;;;;;;;;;;;;;11.85;68.60;98030.67;223830;181;138336;-72
2023/04/14 01:30:17;;;;;;;32.80;26.40;;;;;;;11.79;68.53;98021.77;223908;181;129050;-73
2023/04/14 01:35:41;;;;;;;32.80;26.30;;;;;;;11.70;68.49;98008.14;223750;181;145736;-73
2023/04/14 01:40:50;;;;;;;35.30;25.50;;;;;;;11.58;68.67;98010.85;223828;181;139116;-71
2023/04/14 01:45:57;;;;;;;35.30;25.60;;;;;;;11.53;68.74;98008.23;223993;181;137534;-72
2023/04/14 01:51:04;;;;;;;31.40;25.50;;;;;;;11.51;68.92;97995.26;223909;182;147582;-72
2023/04/14 01:56:11;;;;;;;32.70;26.20;;;;;;;11.52;68.95;97992.05;223908;182;138080;-72
2023/04/14 02:01:16;;;;;;;33.60;25.90;;;;;;;11.48;69.18;97991.61;223888;181;136944;-72
2023/04/14 02:06:21;;;;;;;34.70;26.40;;;;;;;11.47;69.58;97999.74;223922;182;146267;-73
2023/04/14 02:11:27;;;;;;;33.20;27.40;;;;;;;11.42;69.76;97994.86;223905;181;138734;-74
2023/04/14 02:16:32;;;;;;;33.40;25.50;;;;;;;11.39;69.94;97996.45;223913;181;137646;-73
2023/04/14 02:21:36;;;;;;;;;;;;;;;11.41;70.19;97989.89;223961;182;145786;-73
2023/04/14 02:26:46;;;;;;;32.10;24.60;;;;;;;11.41;70.22;97985.98;223931;181;138832;-73
2023/04/14 02:31:59;;;;;;;32.20;25.50;;;;;;;11.45;70.40;97974.33;223888;181;139382;-74
2023/04/14 02:37:14;;;;;;;31.30;26.30;;;;;;;11.47;70.34;97960.12;223891;182;144995;-72
2023/04/14 02:42:21;;;;;;;31.00;25.40;;;;;;;11.48;70.47;97954.54;223858;182;138384;-72
2023/04/14 02:47:31;;;;;;;32.30;25.10;;;;;;;11.49;70.47;97956.21;223993;181;137559;-73
2023/04/14 02:52:36;;;;;;;33.10;25.10;;;;;;;11.46;70.51;97959.28;223952;182;145806;-76
2023/04/14 02:57:40;;;;;;;60.50;46.60;;;;;;;11.45;70.69;97959.21;223853;181;139428;-73
2023/04/14 03:02:45;;;;;;;54.30;39.60;;;;;;;11.43;70.44;97955.35;223870;181;137333;-74
2023/04/14 03:07:51;;;;;;;30.10;22.20;;;;;;;11.41;70.41;97952.10;223855;182;145068;-75
2023/04/14 03:12:57;;;;;;;29.30;22.50;;;;;;;11.43;70.36;97946.46;223964;182;138206;-75
2023/04/14 03:18:02;;;;;;;31.70;21.70;;;;;;;11.43;70.28;97940.38;223747;182;137300;-75
2023/04/14 03:23:10;;;;;;;27.80;20.40;;;;;;;11.41;70.22;97933.23;223238;181;147223;-74
2023/04/14 03:28:21;;;;;;;28.00;19.90;;;;;;;11.39;70.07;97931.45;223836;181;138532;-75
2023/04/14 03:33:27;;;;;;;30.10;21.50;;;;;;;11.34;69.92;97936.84;223916;181;137201;-74
2023/04/14 03:38:33;;;;;;;27.40;20.30;;;;;;;11.27;69.96;97938.34;223909;181;147329;-75
2023/04/14 03:43:37;;;;;;;;;;;;;;;11.21;70.02;97941.88;223866;182;139386;-75
2023/04/14 03:48:44;;;;;;;26.80;18.10;;;;;;;11.18;70.23;97936.95;223925;182;130714;-75
2023/04/14 03:53:50;;;;;;;55.20;38.60;;;;;;;11.19;70.36;97931.05;223868;181;146836;-75
2023/04/14 03:58:56;;;;;;;27.20;20.10;;;;;;;11.28;70.40;97927.80;223908;181;138549;-75
2023/04/14 04:04:01;;;;;;;24.70;18.70;;;;;;;11.33;70.16;97927.54;219297;181;137474;-75
2023/04/14 04:09:08;;;;;;;26.50;19.00;;;;;;;11.35;70.06;97925.04;223805;181;147860;-76
2023/04/14 04:14:17;;;;;;;27.10;20.20;;;;;;;11.34;70.03;97934.55;223828;182;137975;-75
2023/04/14 04:19:24;;;;;;;26.20;19.20;;;;;;;11.36;70.11;97939.34;223832;181;138366;-75
2023/04/14 04:24:32;;;;;;;27.60;18.50;;;;;;;11.34;70.02;97949.09;223912;181;147379;-76
2023/04/14 04:29:36;;;;;;;26.00;17.50;;;;;;;11.34;70.15;97943.58;223895;182;139482;-75
2023/04/14 04:34:41;;;;;;;25.10;17.10;;;;;;;11.40;70.19;97938.17;223893;179;137306;-76
2023/04/14 04:39:46;;;;;;;23.10;17.10;;;;;;;11.46;70.05;97943.48;223883;181;147112;-75
2023/04/14 04:51:05;;;;;;;26.50;20.00;;;;;;;11.55;69.64;97949.95;223793;181;137685;-74
2023/04/14 04:56:08;;;;;;;24.70;19.10;;;;;;;11.57;69.59;97948.38;223867;181;147331;-75
2023/04/14 05:01:13;;;;;;;27.70;20.00;;;;;;;11.60;69.72;97940.56;223778;182;139789;-76
2023/04/14 05:06:17;;;;;;;29.20;21.00;;;;;;;11.60;69.69;97949.77;223914;181;137646;-76
2023/04/14 05:11:20;;;;;;;27.90;20.50;;;;;;;11.63;69.81;97939.27;223799;181;147756;-75
2023/04/14 05:16:24;;;;;;;30.80;22.40;;;;;;;11.70;69.84;97932.42;223891;181;138330;-75
2023/04/14 05:21:27;;;;;;;32.70;23.80;;;;;;;11.79;69.73;97924.41;224005;180;137919;-76
2023/04/14 05:26:31;;;;;;;35.20;25.80;;;;;;;11.84;69.74;97913.10;223882;181;147523;-76
2023/04/14 05:31:54;;;;;;;32.20;24.60;;;;;;;11.92;69.69;97911.42;223811;181;138441;-76
2023/04/14 05:36:58;;;;;;;34.50;24.40;;;;;;;11.93;69.57;97902.08;223820;182;137175;-74
2023/04/14 05:42:01;;;;;;;29.80;23.60;;;;;;;11.97;69.54;97893.40;223895;181;147650;-75
2023/04/14 05:47:04;;;;;;;31.90;23.20;;;;;;;12.00;69.54;97885.11;223874;182;138750;-76
2023/04/14 05:52:08;;;;;;;31.50;22.70;;;;;;;12.07;69.49;97874.23;223270;182;138389;-76
2023/04/14 05:57:11;;;;;;;31.70;23.60;;;;;;;12.16;69.21;97869.84;223357;182;147295;-75
2023/04/14 06:02:14;;;;;;;30.70;23.30;;;;;;;12.23;69.22;97867.97;223284;182;139931;-76
2023/04/14 06:07:18;;;;;;;29.00;22.20;;;;;;;12.34;69.01;97867.77;223400;181;140753;-77
2023/04/14 06:12:22;;;;;;;29.90;22.20;;;;;;;12.38;68.78;97860.23;223629;181;147464;-76
2023/04/14 06:17:25;;;;;;;34.40;23.20;;;;;;;12.45;68.73;97857.55;223816;181;138551;-76
2023/04/14 06:22:29;;;;;;;34.50;23.10;;;;;;;12.59;68.62;97861.23;223834;182;138048;-77
2023/04/14 06:27:32;;;;;;;30.80;22.30;;;;;;;12.67;68.15;97857.63;223926;182;146963;-77
2023/04/14 06:32:35;;;;;;;30.90;21.00;;;;;;;12.73;67.81;97865.35;223875;183;139523;-78
2023/04/14 06:37:39;;;;;;;32.30;23.20;;;;;;;12.82;67.61;97863.11;221283;183;139769;-78
2023/04/14 06:42:42;;;;;;;31.90;22.70;;;;;;;12.91;67.52;97873.00;223717;182;146990;-78
2023/04/14 06:47:46;;;;;;;31.80;22.00;;;;;;;13.03;67.72;97869.94;223748;182;138704;-78
2023/04/14 06:52:49;;;;;;;34.30;23.30;;;;;;;13.10;66.40;97872.15;223780;183;139813;-77
2023/04/14 06:57:53;;;;;;;34.40;22.50;;;;;;;13.11;66.34;97863.38;223747;183;147227;-77
2023/04/14 07:02:56;;;;;;;31.20;22.20;;;;;;;13.07;66.15;97858.89;223750;183;138430;-77
2023/04/14 07:08:00;;;;;;;33.10;22.30;;;;;;;13.07;66.01;97854.14;223692;183;137540;-76
2023/04/14 07:13:03;;;;;;;32.20;21.60;;;;;;;13.17;65.95;97836.81;223718;182;147529;-76
2023/04/14 07:18:07;;;;;;;31.00;21.20;;;;;;;13.26;65.65;97825.08;223789;183;154414;-76
2023/04/14 07:23:10;;;;;;;27.80;18.60;;;;;;;13.37;65.65;97818.36;223811;183;137663;-76
2023/04/14 07:28:14;;;;;;;27.90;18.90;;;;;;;13.52;65.29;97808.60;223827;182;147219;-76
2023/04/14 07:33:54;;;;;;;25.50;17.10;;;;;;;13.69;65.09;97805.09;223779;182;139493;-75
2023/04/14 07:38:57;;;;;;;22.20;16.20;;;;;;;13.92;64.63;97803.20;223735;183;138298;-76
2023/04/14 07:44:01;;;;;;;17.50;13.30;;;;;;;14.15;63.78;97807.83;223723;183;149177;-75
2023/04/14 07:49:05;;;;;;;19.20;13.70;;;;;;;14.27;62.10;97809.81;223772;182;138569;-76
2023/04/14 07:54:10;;;;;;;21.80;14.80;;;;;;;14.40;61.12;97809.48;223807;183;151247;-75
2023/04/14 07:59:13;;;;;;;20.20;14.40;;;;;;;14.51;60.88;97804.86;223723;183;147315;-76
2023/04/14 08:04:17;;;;;;;21.10;15.40;;;;;;;14.60;60.68;97804.66;219628;183;138597;-79
2023/04/14 08:09:20;;;;;;;19.80;14.80;;;;;;;14.75;60.23;97799.42;223344;182;138623;-79
2023/04/14 08:14:24;;;;;;;21.30;13.60;;;;;;;14.82;59.88;97798.18;223793;182;147221;-76
2023/04/14 08:19:27;;;;;;;18.80;13.60;;;;;;;14.87;59.56;97788.44;223827;182;138933;-75
2023/04/14 08:24:31;;;;;;;18.10;14.00;;;;;;;14.83;58.94;97784.02;223818;183;137975;-77
2023/04/14 08:29:37;;;;;;;18.60;14.30;;;;;;;14.78;58.81;97781.63;223813;183;147496;-77
2023/04/14 08:34:40;;;;;;;19.90;13.80;;;;;;;14.82;58.96;97770.12;221701;182;138045;-77
2023/04/14 08:40:08;;;;;;;19.80;14.40;;;;;;;14.95;58.89;97763.16;223786;182;137108;-77
2023/04/14 08:45:12;;;;;;;19.00;12.40;;;;;;;15.11;58.72;97748.36;223770;182;147620;-77
2023/04/14 08:50:20;;;;;;;28.80;17.60;;;;;;;15.29;58.35;97744.38;223783;182;138272;-78
2023/04/14 08:55:24;;;;;;;14.50;10.20;;;;;;;15.49;57.23;97744.11;223783;182;140778;-78
2023/04/14 09:00:28;;;;;;;13.10;9.30;;;;;;;15.67;56.63;97746.92;223693;182;147285;-78
2023/04/14 09:05:32;;;;;;;17.50;9.90;;;;;;;15.78;55.44;97747.30;223730;182;139275;-78
2023/04/14 09:10:37;;;;;;;17.30;10.00;;;;;;;15.90;55.46;97744.36;223617;182;137523;-78
2023/04/14 09:15:41;;;;;;;12.70;7.70;;;;;;;16.13;55.54;97737.83;223792;182;148276;-79
2023/04/14 09:20:46;;;;;;;12.70;6.70;;;;;;;16.30;53.59;97739.39;223684;182;138974;-67
2023/04/14 09:26:12;;;;;;;10.70;4.70;;;;;;;16.36;51.51;97741.48;223863;182;137601;-69
2023/04/14 09:31:17;;;;;;;10.20;4.60;;;;;;;16.37;50.35;97738.54;223668;181;147108;-68
2023/04/14 09:37:05;;;;;;;5.00;3.30;;;;;;;16.47;49.82;97730.93;223750;182;139000;-70
2023/04/14 09:42:08;;;;;;;27.00;14.30;;;;;;;16.62;47.83;97731.47;223592;182;138176;-70
2023/04/14 09:47:15;;;;;;;6.80;4.10;;;;;;;16.77;46.96;97725.74;223755;182;147594;-68
2023/04/14 09:52:18;;;;;;;4.00;3.20;;;;;;;16.86;45.48;97725.31;223541;183;138423;-67
2023/04/14 09:57:25;;;;;;;5.50;3.20;;;;;;;16.93;45.17;97713.63;223584;183;137629;-68
2023/04/14 10:02:29;;;;;;;4.70;2.80;;;;;;;16.97;44.44;97707.82;223525;182;146997;-67
2023/04/14 10:07:39;;;;;;;5.20;3.00;;;;;;;17.04;43.35;97705.42;223485;181;138977;-68
2023/04/14 10:12:43;;;;;;;4.10;2.80;;;;;;;17.13;41.59;97694.93;223718;181;137005;-67
2023/04/14 10:17:53;;;;;;;10.10;2.90;;;;;;;17.20;42.40;97689.28;223565;181;147701;-67
2023/04/14 10:22:56;;;;;;;6.20;2.80;;;;;;;17.32;42.88;97681.93;223485;183;138384;-67
2023/04/14 10:28:00;;;;;;;5.60;2.60;;;;;;;17.40;41.73;97676.23;223552;215;136855;-69
2023/04/14 10:33:03;;;;;;;5.30;3.20;;;;;;;17.46;41.34;97674.91;223528;186;147470;-68
2023/04/14 10:38:06;;;;;;;5.20;2.70;;;;;;;17.51;41.39;97670.09;223487;181;138450;-68
2023/04/14 10:43:12;;;;;;;9.00;3.20;;;;;;;17.53;40.95;97670.38;223552;182;137038;-69
2023/04/14 10:48:16;;;;;;;8.30;3.20;;;;;;;17.57;40.99;97667.95;223871;181;147454;-68
2023/04/14 10:53:19;;;;;;;5.20;2.80;;;;;;;17.64;41.25;97655.17;223887;182;138629;-69
2023/04/14 10:58:28;;;;;;;4.00;2.70;;;;;;;17.66;41.61;97649.42;223759;182;137249;-70
2023/04/14 11:03:42;;;;;;;5.40;2.90;;;;;;;17.66;40.93;97646.63;223757;182;147112;-68
2023/04/14 11:08:49;;;;;;;5.70;2.80;;;;;;;17.73;40.36;97639.54;223724;182;139966;-68
2023/04/14 11:14:11;;;;;;;4.60;2.90;;;;;;;17.79;40.01;97645.13;223736;181;136693;-69
2023/04/14 11:19:15;;;;;;;3.20;2.30;;;;;;;17.85;39.60;97638.10;223780;183;146847;-70
2023/04/14 11:24:21;;;;;;;4.40;2.40;;;;;;;17.86;39.12;97628.65;223795;183;138367;-65
2023/04/14 11:29:24;;;;;;;3.50;2.50;;;;;;;17.86;39.38;97625.99;223794;182;137606;-66
2023/04/14 11:34:27;;;;;;;14.50;2.80;;;;;;;17.91;38.72;97619.85;223798;182;147568;-64
2023/04/14 11:39:31;;;;;;;11.20;3.00;;;;;;;17.97;38.66;97618.98;223829;182;138737;-66
2023/04/14 11:44:34;;;;;;;9.50;2.80;;;;;;;18.02;38.80;97627.15;223858;182;137486;-64
2023/04/14 11:49:38;;;;;;;5.90;2.50;;;;;;;18.09;39.16;97617.61;223791;182;147568;-63
2023/04/14 11:54:41;;;;;;;2.90;2.30;;;;;;;18.05;39.02;97612.99;223796;182;138677;-64
2023/04/14 11:59:46;;;;;;;7.90;2.80;;;;;;;18.00;38.91;97611.77;223783;182;137446;-63
2023/04/14 12:04:50;;;;;;;4.80;2.90;;;;;;;18.07;39.65;97612.31;223819;182;148562;-64
2023/04/14 12:09:53;;;;;;;7.70;3.40;;;;;;;18.20;40.13;97604.45;223841;182;138599;-64
2023/04/14 12:14:57;;;;;;;6.30;3.00;;;;;;;18.24;39.41;97600.91;223850;182;137431;-63
2023/04/14 12:20:01;;;;;;;3.60;2.70;;;;;;;18.31;39.99;97597.23;223668;181;147180;-64
2023/04/14 12:25:11;;;;;;;5.30;3.00;;;;;;;18.56;40.27;97589.96;223767;182;138629;-65
2023/04/14 12:30:20;;;;;;;4.50;3.10;;;;;;;18.78;40.55;97590.44;223828;183;136892;-64
2023/04/14 12:35:23;;;;;;;6.50;2.70;;;;;;;19.04;40.38;97573.51;223853;182;146990;-64
2023/04/14 12:40:37;;;;;;;4.20;3.00;;;;;;;19.25;39.99;97563.73;223760;181;138952;-65
2023/04/14 12:45:41;;;;;;;4.70;2.80;;;;;;;19.64;39.62;97563.80;223896;182;138024;-64
2023/04/14 12:50:45;;;;;;;6.70;3.50;;;;;;;19.83;39.42;97558.89;223826;183;148503;-63
2023/04/14 12:56:09;;;;;;;5.60;3.60;;;;;;;19.92;39.18;97552.59;223765;181;138035;-64
2023/04/14 13:01:18;;;;;;;10.60;3.90;;;;;;;19.96;39.33;97543.34;223902;182;137314;-64
2023/04/14 13:06:26;;;;;;;3.60;2.90;;;;;;;19.97;38.92;97536.61;223807;183;146818;-63
2023/04/14 13:11:34;;;;;;;8.40;3.80;;;;;;;19.91;39.19;97530.23;223777;182;138922;-65
2023/04/14 13:16:38;;;;;;;9.40;3.60;;;;;;;19.85;39.56;97531.75;223847;182;138214;-65
2023/04/14 13:21:42;;;;;;;8.80;4.10;;;;;;;19.94;39.18;97519.42;223863;181;148026;-65
2023/04/14 13:26:48;;;;;;;6.90;4.20;;;;;;;19.98;38.80;97517.48;223780;182;138463;-66
2023/04/14 13:31:51;;;;;;;7.20;4.20;;;;;;;19.87;38.74;97518.23;223766;182;138193;-65
2023/04/14 13:36:55;;;;;;;8.30;3.90;;;;;;;19.57;39.07;97523.64;223806;182;147636;-65
2023/04/14 13:41:59;;;;;;;8.50;3.90;;;;;;;19.32;39.79;97521.57;223906;182;138771;-64
2023/04/14 13:47:04;;;;;;;8.70;4.10;;;;;;;19.07;40.22;97517.77;223838;182;137167;-64
2023/04/14 13:52:11;;;;;;;7.50;4.00;;;;;;;18.87;40.43;97516.19;223901;182;146867;-63
2023/04/14 13:57:15;;;;;;;7.40;3.20;;;;;;;18.70;40.59;97511.56;223793;182;138556;-63
2023/04/14 14:02:20;;;;;;;10.00;3.60;;;;;;;18.55;40.71;97510.45;223888;182;136622;-66
2023/04/14 14:07:25;;;;;;;8.80;3.90;;;;;;;18.47;40.89;97514.92;223852;182;147347;-63
2023/04/14 14:12:31;;;;;;;5.60;3.10;;;;;;;18.43;41.18;97511.95;223790;183;138403;-63
2023/04/14 14:17:36;;;;;;;5.00;3.10;;;;;;;18.36;41.23;97503.23;223791;182;137031;-65
2023/04/14 14:22:40;;;;;;;4.20;2.70;;;;;;;18.30;41.19;97505.41;223900;182;147142;-64
2023/04/14 14:27:44;;;;;;;4.30;3.20;;;;;;;18.26;40.86;97507.20;223823;179;138372;-65
2023/04/14 14:32:49;;;;;;;15.40;8.50;;;;;;;18.21;41.06;97514.04;223828;182;137343;-64
2023/04/14 14:37:53;;;;;;;5.90;3.40;;;;;;;18.16;41.08;97513.16;223788;182;147832;-66
2023/04/14 14:43:00;;;;;;;4.40;3.20;;;;;;;18.09;41.28;97509.69;223575;182;138114;-63
2023/04/14 14:48:04;;;;;;;110.20;80.10;;;;;;;18.02;41.71;97514.23;223790;181;137783;-63
2023/04/14 14:53:08;;;;;;;14.30;9.50;;;;;;;17.97;42.19;97514.16;223778;182;149141;-67
2023/04/14 14:58:12;;;;;;;8.10;3.90;;;;;;;17.91;41.83;97514.88;223810;182;138425;-66
2023/04/14 15:03:15;;;;;;;6.40;3.30;;;;;;;17.83;41.94;97507.23;223867;182;137121;-65
2023/04/14 15:08:19;;;;;;;5.10;3.40;;;;;;;17.78;41.56;97507.45;223753;182;147245;-65
2023/04/14 15:13:22;;;;;;;8.30;3.30;;;;;;;17.71;41.53;97507.40;223723;182;138477;-65
2023/04/14 15:18:25;;;;;;;4.20;3.20;;;;;;;17.66;41.67;97508.88;223748;182;137032;-66
2023/04/14 15:23:31;;;;;;;5.30;3.00;;;;;;;17.61;41.14;97507.93;223813;182;146826;-66
2023/04/14 15:28:34;;;;;;;5.50;3.30;;;;;;;17.54;41.54;97513.40;223842;182;138313;-64
2023/04/14 15:33:37;;;;;;;6.10;3.50;;;;;;;17.48;41.58;97514.75;223805;182;137172;-66
2023/04/14 15:38:40;;;;;;;7.50;4.40;;;;;;;17.42;41.90;97519.60;223769;182;147221;-66
2023/04/14 15:43:44;;;;;;;12.10;4.20;;;;;;;17.38;41.79;97519.65;223779;182;138893;-66
2023/04/14 15:48:47;;;;;;;7.20;3.80;;;;;;;17.36;42.03;97524.80;223751;182;138867;-65
2023/04/14 15:53:50;;;;;;;15.70;8.90;;;;;;;17.35;42.47;97528.11;223761;181;147990;-66
2023/04/14 15:58:54;;;;;;;9.80;4.30;;;;;;;17.32;42.18;97525.05;223768;181;138427;-65
2023/04/14 16:03:57;;;;;;;10.80;3.90;;;;;;;17.30;42.51;97523.16;223866;182;137964;-63
2023/04/14 16:09:01;;;;;;;9.80;3.80;;;;;;;17.23;42.67;97517.96;223691;182;147782;-65
2023/04/14 16:14:05;;;;;;;5.80;4.20;;;;;;;17.19;42.71;97515.27;223576;183;160483;-64
2023/04/14 16:19:09;;;;;;;6.00;3.70;;;;;;;17.13;42.94;97517.02;223593;181;136729;-64
2023/04/14 16:24:13;;;;;;;8.50;3.80;;;;;;;17.06;43.11;97521.73;223504;181;147762;-65
2023/04/14 16:29:17;;;;;;;6.80;4.30;;;;;;;17.03;43.55;97519.23;223477;181;138300;-64
2023/04/14 16:34:20;;;;;;;7.00;4.10;;;;;;;17.00;43.87;97520.21;223573;216;136787;-66
2023/04/14 16:39:23;;;;;;;8.20;4.20;;;;;;;16.94;44.37;97519.15;223565;178;146915;-65
2023/04/14 16:44:27;;;;;;;7.60;4.90;;;;;;;16.88;44.46;97518.50;223482;182;139267;-65
2023/04/14 16:49:30;;;;;;;8.20;5.20;;;;;;;16.84;44.86;97518.82;223552;183;137324;-65
2023/04/14 16:54:35;;;;;;;9.30;5.00;;;;;;;16.81;45.68;97520.96;223542;181;148643;-66
2023/04/14 16:59:40;;;;;;;8.50;4.90;;;;;;;16.75;45.78;97516.44;223522;183;138434;-65
2023/04/14 17:04:43;;;;;;;8.10;4.60;;;;;;;16.70;46.37;97519.45;223543;181;137169;-66
2023/04/14 17:09:48;;;;;;;6.50;4.70;;;;;;;16.66;46.98;97524.98;223614;183;147159;-64
2023/04/14 17:14:51;;;;;;;8.50;5.40;;;;;;;16.57;47.24;97531.70;223524;181;139139;-65
2023/04/14 17:19:55;;;;;;;6.90;5.00;;;;;;;16.49;47.97;97538.48;223617;182;137181;-65
2023/04/14 17:24:59;;;;;;;7.10;5.00;;;;;;;16.42;48.29;97539.60;223661;181;147391;-65
2023/04/14 17:30:03;;;;;;;9.80;5.50;;;;;;;16.37;48.99;97539.61;223533;181;139085;-65
2023/04/14 17:35:08;;;;;;;8.20;5.40;;;;;;;16.31;49.42;97538.73;223570;183;137760;-66
2023/04/14 17:40:12;;;;;;;11.80;5.50;;;;;;;16.23;49.79;97537.70;223623;215;148505;-64
2023/04/14 17:45:21;;;;;;;8.30;5.40;;;;;;;16.14;50.11;97541.02;223522;181;138293;-67
2023/04/14 17:50:24;;;;;;;9.50;5.80;;;;;;;16.06;50.71;97544.60;223548;182;137551;-67
2023/04/14 17:55:28;;;;;;;12.00;6.10;;;;;;;16.00;51.18;97548.16;223536;181;146799;-65
2023/04/14 18:00:31;;;;;;;10.10;6.10;;;;;;;15.91;51.57;97553.23;223507;182;138659;-65
2023/04/14 18:05:35;;;;;;;9.30;6.30;;;;;;;15.86;51.95;97555.20;223430;183;137955;-65
2023/04/14 18:10:38;;;;;;;490.00;418.40;;;;;;;15.81;52.38;97560.50;223609;181;147857;-65
2023/04/14 18:15:41;;;;;;;11.20;8.80;;;;;;;15.90;52.50;97566.68;223579;206;138843;-65
2023/04/14 18:20:49;;;;;;;10.40;6.90;;;;;;;15.91;52.28;97574.86;223465;181;137742;-66
2023/04/14 18:26:01;;;;;;;8.90;6.60;;;;;;;15.90;52.32;97581.74;223528;182;147164;-65
2023/04/14 18:31:07;;;;;;;10.40;6.50;;;;;;;15.89;52.55;97589.39;223639;182;139815;-68
2023/04/14 18:36:13;;;;;;;13.60;9.60;;;;;;;15.81;53.00;97590.94;223532;182;137327;-67
2023/04/14 18:41:16;;;;;;;15.30;10.00;;;;;;;15.75;53.20;97585.83;223543;183;147995;-67
2023/04/14 18:46:20;;;;;;;11.70;6.90;;;;;;;15.64;53.24;97584.11;223615;183;138426;-68
2023/04/14 18:51:31;;;;;;;12.60;7.20;;;;;;;15.63;53.06;97591.56;223626;181;137319;-66
2023/04/14 18:56:35;;;;;;;10.70;6.00;;;;;;;15.65;53.18;97594.73;223626;183;147468;-66
2023/04/14 19:01:39;;;;;;;11.20;5.30;;;;;;;15.61;53.29;97594.84;223587;182;138739;-65
2023/04/14 19:06:42;;;;;;;5.10;3.60;;;;;;;15.53;53.46;97593.46;223745;182;137080;-66
2023/04/14 19:11:47;;;;;;;11.30;6.30;;;;;;;15.45;53.77;97594.58;223790;182;147170;-66
2023/04/14 19:16:50;;;;;;;18.10;6.70;;;;;;;15.41;53.90;97586.95;223720;182;138308;-65
2023/04/14 19:21:54;;;;;;;15.80;6.60;;;;;;;15.34;54.29;97586.50;223824;183;137545;-64
2023/04/14 19:26:57;;;;;;;17.70;7.30;;;;;;;15.34;54.05;97582.26;223842;181;148037;-65
2023/04/14 19:32:01;;;;;;;13.70;5.90;;;;;;;15.31;54.32;97580.61;223723;182;140531;-65
2023/04/14 19:37:04;;;;;;;6.90;3.20;;;;;;;15.28;54.38;97580.54;223814;182;137299;-65
2023/04/14 19:42:08;;;;;;;210.30;160.30;;;;;;;15.23;54.49;97581.34;223706;182;148089;-66
2023/04/14 19:47:11;;;;;;;10.00;5.20;;;;;;;15.25;54.67;97585.02;223732;182;140609;-65
2023/04/14 19:52:14;;;;;;;3.60;2.70;;;;;;;15.24;54.57;97589.38;223843;182;137385;-65
2023/04/14 19:57:20;;;;;;;7.30;3.30;;;;;;;15.22;54.64;97586.06;223855;182;146963;-63
2023/04/14 20:02:24;;;;;;;8.30;3.30;;;;;;;15.18;54.76;97586.08;223690;182;138262;-62
2023/04/14 20:07:32;;;;;;;4.30;3.10;;;;;;;15.09;54.92;97591.48;223819;182;139232;-64
2023/04/14 20:12:36;;;;;;;3.50;2.70;;;;;;;15.05;55.06;97601.77;223837;182;147054;-65
2023/04/14 20:17:39;;;;;;;6.10;3.10;;;;;;;14.96;55.28;97606.05;223674;182;138256;-63
2023/04/14 20:22:44;;;;;;;5.40;3.20;;;;;;;14.94;55.37;97601.48;223870;182;138462;-66
2023/04/14 20:27:48;;;;;;;3.80;2.70;;;;;;;14.88;55.51;97611.86;223796;182;147786;-65
2023/04/14 20:32:51;;;;;;;4.90;2.80;;;;;;;14.79;55.79;97613.16;223732;182;138546;-64
2023/04/14 20:42:54;;;;;;;3.90;2.10;;;;;;;14.74;56.54;97595.14;221134;193;665250;-83
2023/04/14 20:47:57;;;;;;;3.30;2.40;;;;;;;14.68;56.89;97595.21;223841;184;136497;-82
2023/04/14 20:53:01;;;;;;;2.70;2.20;;;;;;;14.59;57.27;97601.31;223735;184;146315;-81
2023/04/14 20:58:04;;;;;;;4.30;2.50;;;;;;;14.51;57.70;97617.49;223504;184;138867;-84
2023/04/14 21:03:08;;;;;;;4.90;2.50;;;;;;;14.43;58.10;97609.16;223833;179;136644;-83
2023/04/14 21:08:12;;;;;;;3.70;2.30;;;;;;;14.40;58.53;97614.02;223709;182;143452;-83
2023/04/14 21:13:16;;;;;;;3.70;2.50;;;;;;;14.39;58.67;97629.19;223800;182;138582;-81
2023/04/14 21:18:40;;;;;;;3.40;2.50;;;;;;;14.35;58.95;97644.00;223752;182;136420;-83
2023/04/14 21:23:44;;;;;;;5.60;2.10;;;;;;;14.34;58.97;97647.81;223878;182;143809;-83
2023/04/14 21:28:47;;;;;;;3.40;2.30;;;;;;;14.29;59.11;97655.86;223848;182;138714;-81
2023/04/14 21:33:50;;;;;;;4.50;2.40;;;;;;;14.21;59.45;97653.75;224021;182;136762;-80
2023/04/14 21:38:54;;;;;;;3.70;2.50;;;;;;;14.17;59.73;97654.54;223809;182;145582;-83
2023/04/14 21:43:57;;;;;;;4.20;2.90;;;;;;;14.13;59.88;97649.21;223835;181;138085;-81
2023/04/14 21:49:02;;;;;;;6.30;2.90;;;;;;;14.13;60.24;97652.48;223939;182;137745;-82
2023/04/14 21:54:05;;;;;;;4.90;3.00;;;;;;;14.19;60.39;97661.48;222952;182;145538;-81
2023/04/14 21:59:10;;;;;;;4.80;3.10;;;;;;;14.18;60.43;97655.38;223846;182;139402;-80
2023/04/14 22:04:14;;;;;;;3.10;2.50;;;;;;;14.15;60.63;97665.96;223755;183;136748;-80
2023/04/14 22:09:38;;;;;;;7.30;4.00;;;;;;;14.07;60.69;97664.04;223829;182;145882;-81
2023/04/14 22:14:41;;;;;;;4.10;3.10;;;;;;;13.97;61.04;97653.33;223765;182;138628;-80
2023/04/14 22:19:45;;;;;;;3.90;2.70;;;;;;;13.88;61.45;97667.53;223810;182;137176;-80
2023/04/14 22:24:50;;;;;;;5.10;3.20;;;;;;;13.83;61.73;97693.89;223856;182;145505;-82
2023/04/14 22:29:53;;;;;;;3.90;2.90;;;;;;;13.82;61.92;97686.85;223803;182;139194;-81
2023/04/14 22:34:57;;;;;;;3.80;2.60;;;;;;;13.86;61.92;97670.83;222369;182;138003;-83
2023/04/14 22:40:02;;;;;;;4.60;2.60;;;;;;;13.89;61.70;97686.58;223077;182;145713;-82
2023/04/14 22:45:06;;;;;;;4.50;3.00;;;;;;;13.89;61.47;97701.15;223786;182;138802;-82
2023/04/14 22:50:09;;;;;;;6.30;3.20;;;;;;;13.95;61.17;97709.81;223854;183;136903;-83
2023/04/14 22:55:13;;;;;;;5.70;3.80;;;;;;;13.91;60.90;97713.74;223817;183;145052;-85
2023/04/14 23:00:16;;;;;;;6.50;3.90;;;;;;;13.85;61.07;97713.80;222664;182;137670;-88
2023/04/14 23:05:20;;;;;;;4.20;3.00;;;;;;;13.80;61.02;97718.59;218553;182;136874;-86
2023/04/14 23:10:23;;;;;;;5.30;3.30;;;;;;;13.75;61.01;97712.65;222924;183;145104;-86
2023/04/14 23:15:27;;;;;;;5.10;2.70;;;;;;;13.70;61.21;97706.19;223307;182;138389;-83
2023/04/14 23:20:30;;;;;;;4.50;3.00;;;;;;;13.64;61.20;97704.51;223854;182;137573;-83
2023/04/14 23:25:34;;;;;;;4.50;3.00;;;;;;;13.55;61.51;97710.30;223932;182;145365;-85
2023/04/14 23:30:37;;;;;;;5.50;2.90;;;;;;;13.47;61.67;97715.65;223837;183;139497;-83
2023/04/14 23:35:40;;;;;;;4.90;2.70;;;;;;;13.43;61.70;97723.88;222666;183;136325;-83
2023/04/14 23:40:44;;;;;;;8.00;2.80;;;;;;;13.42;61.81;97718.80;223854;182;145400;-82
2023/04/14 23:45:47;;;;;;;4.20;2.80;;;;;;;13.46;61.62;97705.67;221829;182;138544;-86
2023/04/14 23:50:51;;;;;;;8.20;3.50;;;;;;;13.52;61.18;97706.18;222993;183;137956;-83